Terminal Aerodrome Forecast
Issued by NWS

Home | Current Version | Previous Version | Text Only | Print | Product List | Glossary On
Versions: 1 2 3 4 5 6 7 8 9 10 11 12 13 14 15 16 17 18 19 20 21 22 23 24 25 26 27 28 29 30 31 32 33 34 35 36 37 38 39 40 41 42 43 44 45 46
000
FTUS43 KDLH 290345 AAD
TAFHYR
TAF AMD
KHYR 290345Z 2904/2924 VRB05KT P6SM VCSH SCT040 OVC110
      TEMPO 2904/2906 3/4SM BR VV001 OVC002
     FM290600 VRB05KT 4SM BR BKN040
     FM290900 00000KT 1 1/2SM BR BKN020
     FM291200 00000KT 4SM BR SCT010 BKN050
     FM291500 27010KT P6SM VCSH BKN050
     FM292000 28011KT P6SM VCTS BKN050CB=

USA.gov is the U.S. government's official web portal to all federal, state and local government web resources and services.